Time;durP1;ratioP1;P1;durP2;ratioP2;P2;SDS_P1;SDS_P2;PMS_P1;PMS_P2;Temp;Humidity;BMP_temperature;BMP_pressure;BME280_temperature;BME280_humidity;BME280_pressure;Samples;Min_cycle;Max_cycle;Signal;HPM_P1;HPM_P2
2021/10/18 00:02:11;;;;;;;3.03;1.50;;;21.70;55.50;;;;;;4988770;28;20050;-59
2021/10/18 00:04:36;;;;;;;2.40;1.55;;;21.70;55.50;;;;;;4992249;28;20592;-53
2021/10/18 00:07:02;;;;;;;2.25;1.42;;;21.70;55.50;;;;;;4985626;28;20030;-51
2021/10/18 00:09:28;;;;;;;2.67;1.60;;;21.70;55.50;;;;;;4991515;28;20067;-57
2021/10/18 00:11:54;;;;;;;2.40;1.60;;;21.70;55.50;;;;;;4977219;28;20058;-54
2021/10/18 00:14:20;;;;;;;3.22;1.70;;;21.70;55.60;;;;;;4990573;28;20038;-58
2021/10/18 00:16:46;;;;;;;2.63;1.67;;;21.70;55.50;;;;;;4990223;28;20077;-57
2021/10/18 00:19:12;;;;;;;2.70;1.80;;;21.70;55.60;;;;;;4989599;28;20104;-59
2021/10/18 00:21:37;;;;;;;3.03;2.00;;;21.70;55.50;;;;;;4982805;28;20647;-60
2021/10/18 00:24:03;;;;;;;3.38;1.83;;;21.70;55.50;;;;;;4990056;28;20122;-57
2021/10/18 00:26:29;;;;;;;2.75;1.60;;;21.70;55.50;;;;;;4990919;28;20061;-57
2021/10/18 00:28:55;;;;;;;2.15;1.50;;;21.60;55.50;;;;;;4991361;28;20035;-52
2021/10/18 00:31:20;;;;;;;3.47;1.55;;;21.60;55.50;;;;;;4988679;28;20034;-59
2021/10/18 00:33:46;;;;;;;2.50;1.60;;;21.70;55.60;;;;;;4992607;28;20408;-57
2021/10/18 00:36:12;;;;;;;2.75;1.63;;;21.60;55.50;;;;;;4989650;28;20066;-56
2021/10/18 00:38:37;;;;;;;2.15;1.35;;;21.60;55.50;;;;;;4988934;28;20143;-51
2021/10/18 00:41:03;;;;;;;2.30;1.60;;;21.60;55.50;;;;;;4982390;28;20026;-57
2021/10/18 00:43:28;;;;;;;2.83;1.70;;;21.60;55.60;;;;;;4985982;28;20041;-60
2021/10/18 00:45:54;;;;;;;2.10;1.48;;;21.60;55.60;;;;;;4987804;28;20050;-59
2021/10/18 00:48:20;;;;;;;2.67;1.60;;;21.60;55.60;;;;;;4985773;28;20052;-52
2021/10/18 00:50:47;;;;;;;2.50;1.55;;;21.60;55.60;;;;;;4989569;28;20139;-53
2021/10/18 00:53:13;;;;;;;2.17;1.50;;;21.60;56.10;;;;;;4987588;28;20060;-57
2021/10/18 00:55:39;;;;;;;2.53;1.50;;;21.60;55.60;;;;;;4989279;28;20030;-52
2021/10/18 00:58:05;;;;;;;2.25;1.50;;;21.60;55.60;;;;;;4991856;28;20034;-54
2021/10/18 01:00:30;;;;;;;2.13;1.40;;;21.60;55.60;;;;;;4989723;28;20034;-54
2021/10/18 01:02:56;;;;;;;2.55;1.70;;;21.60;55.60;;;;;;4984576;28;20045;-60
2021/10/18 01:05:22;;;;;;;2.33;1.50;;;21.50;55.50;;;;;;4986219;28;20491;-58
2021/10/18 01:07:49;;;;;;;2.30;1.45;;;21.50;55.50;;;;;;4988892;28;20133;-57
2021/10/18 01:10:14;;;;;;;2.13;1.58;;;21.60;55.60;;;;;;4986427;28;20039;-52
2021/10/18 01:12:40;;;;;;;2.13;1.55;;;21.50;55.60;;;;;;4987271;28;20422;-60
2021/10/18 01:15:06;;;;;;;2.13;1.50;;;21.50;55.60;;;;;;4993750;28;20108;-54
2021/10/18 01:17:31;;;;;;;2.28;1.52;;;21.50;55.60;;;;;;4989041;28;20089;-52
2021/10/18 01:19:57;;;;;;;2.33;1.45;;;21.50;55.60;;;;;;4989902;28;20057;-58
2021/10/18 01:22:22;;;;;;;2.88;1.67;;;21.50;55.60;;;;;;4985060;28;20136;-52
2021/10/18 01:24:48;;;;;;;2.80;1.70;;;21.50;55.60;;;;;;4988966;28;20049;-54
2021/10/18 01:27:14;;;;;;;2.75;1.70;;;21.50;55.60;;;;;;4983986;28;20023;-51
2021/10/18 01:29:40;;;;;;;2.05;1.50;;;21.50;55.60;;;;;;4989394;28;20041;-58
2021/10/18 01:32:07;;;;;;;2.35;1.50;;;21.50;55.60;;;;;;4983608;28;20893;-57
2021/10/18 01:34:33;;;;;;;2.55;1.60;;;21.50;55.60;;;;;;4990366;28;20022;-56
2021/10/18 01:37:00;;;;;;;2.30;1.50;;;21.50;55.60;;;;;;4977329;28;20043;-58
2021/10/18 01:39:27;;;;;;;2.40;1.60;;;21.50;55.60;;;;;;4988115;28;20475;-56
2021/10/18 01:41:52;;;;;;;2.33;1.55;;;21.50;55.60;;;;;;4981240;28;20060;-58
2021/10/18 01:44:18;;;;;;;2.03;1.50;;;21.50;55.70;;;;;;4984792;28;20030;-60
2021/10/18 01:46:44;;;;;;;2.47;1.50;;;21.50;55.70;;;;;;4988423;28;20042;-57
2021/10/18 01:49:10;;;;;;;2.10;1.50;;;21.50;55.60;;;;;;4985123;28;20054;-55
2021/10/18 01:51:36;;;;;;;2.25;1.50;;;21.50;55.70;;;;;;4979638;28;20038;-51
2021/10/18 01:54:02;;;;;;;2.08;1.48;;;21.50;55.70;;;;;;4979821;28;20386;-57
2021/10/18 01:56:31;;;;;;;2.97;1.38;;;21.50;55.70;;;;;;4989265;28;20383;-53
2021/10/18 01:58:57;;;;;;;2.20;1.50;;;21.40;55.60;;;;;;4977113;28;20026;-58
2021/10/18 02:01:22;;;;;;;2.65;1.60;;;21.40;55.60;;;;;;4992617;28;20033;-56
2021/10/18 02:03:48;;;;;;;2.15;1.52;;;21.40;55.60;;;;;;4981873;28;20034;-60
2021/10/18 02:06:14;;;;;;;3.22;1.60;;;21.40;55.60;;;;;;4985467;28;20038;-55
2021/10/18 02:08:39;;;;;;;3.35;1.75;;;21.40;55.60;;;;;;4988043;28;20062;-54
2021/10/18 02:11:06;;;;;;;2.85;1.50;;;21.40;55.70;;;;;;4989135;28;20715;-60
2021/10/18 02:13:32;;;;;;;2.80;1.58;;;21.40;55.70;;;;;;4986413;28;20057;-56
2021/10/18 02:15:57;;;;;;;2.17;1.60;;;21.40;55.70;;;;;;4988674;28;20358;-51
2021/10/18 02:18:23;;;;;;;2.95;1.60;;;21.40;55.70;;;;;;4986068;28;20037;-50
2021/10/18 02:20:49;;;;;;;2.25;1.50;;;21.40;55.70;;;;;;4987403;28;20062;-51
2021/10/18 02:23:14;;;;;;;2.10;1.30;;;21.40;55.60;;;;;;4979711;28;20031;-53
2021/10/18 02:25:40;;;;;;;1.75;1.35;;;21.40;55.70;;;;;;4983221;28;20034;-60
2021/10/18 02:28:06;;;;;;;2.20;1.33;;;21.40;55.70;;;;;;4989165;28;20023;-54
2021/10/18 02:30:31;;;;;;;2.20;1.60;;;21.40;55.70;;;;;;4987398;28;20117;-50
2021/10/18 02:32:57;;;;;;;2.88;1.60;;;21.40;55.70;;;;;;4983693;28;20030;-59
2021/10/18 02:35:23;;;;;;;2.58;1.60;;;21.40;55.70;;;;;;4983356;28;20038;-53
2021/10/18 02:37:48;;;;;;;2.70;1.70;;;21.40;55.70;;;;;;4979864;28;20034;-49
2021/10/18 02:40:14;;;;;;;2.20;1.50;;;21.30;55.70;;;;;;4987309;28;20057;-60
2021/10/18 02:42:40;;;;;;;2.35;1.50;;;21.30;55.60;;;;;;4988296;28;20088;-52
2021/10/18 02:45:07;;;;;;;1.90;1.40;;;21.30;55.70;;;;;;4988674;28;20038;-58
2021/10/18 02:47:34;;;;;;;2.30;1.40;;;21.30;55.70;;;;;;4986995;28;20098;-52
2021/10/18 02:50:00;;;;;;;2.22;1.52;;;21.40;55.70;;;;;;4988148;28;20165;-56
2021/10/18 02:52:25;;;;;;;1.90;1.40;;;21.30;55.70;;;;;;4984869;28;20034;-60
2021/10/18 02:54:51;;;;;;;1.65;1.20;;;21.30;55.70;;;;;;4985463;28;20734;-60
2021/10/18 02:57:16;;;;;;;2.15;1.50;;;21.30;55.70;;;;;;4987024;28;20030;-53
2021/10/18 02:59:42;;;;;;;2.05;1.48;;;21.30;55.70;;;;;;4988264;28;20023;-49
2021/10/18 03:02:08;;;;;;;3.08;1.55;;;21.30;55.70;;;;;;4992502;28;20125;-60
2021/10/18 03:04:34;;;;;;;3.05;1.85;;;21.30;55.70;;;;;;4984016;28;20038;-61
2021/10/18 03:06:59;;;;;;;2.03;1.48;;;21.30;55.70;;;;;;4979124;28;20026;-52
2021/10/18 03:09:25;;;;;;;2.90;1.50;;;21.30;55.70;;;;;;4987408;28;20030;-59
2021/10/18 03:11:51;;;;;;;2.20;1.50;;;21.30;55.70;;;;;;4987758;28;20038;-53
2021/10/18 03:14:17;;;;;;;2.40;1.45;;;21.30;55.70;;;;;;4993438;28;20035;-51
2021/10/18 03:16:43;;;;;;;2.35;1.48;;;21.30;55.70;;;;;;4978687;28;20023;-55
2021/10/18 03:19:08;;;;;;;1.80;1.40;;;21.30;55.70;;;;;;4988110;28;20027;-51
2021/10/18 03:21:34;;;;;;;1.98;1.40;;;21.30;55.70;;;;;;4981320;28;20078;-54
2021/10/18 03:23:59;;;;;;;2.00;1.40;;;21.30;55.70;;;;;;4977053;28;20051;-56
2021/10/18 03:26:25;;;;;;;2.25;1.48;;;21.30;55.70;;;;;;4986335;28;20033;-59
2021/10/18 03:28:50;;;;;;;1.98;1.50;;;21.30;55.70;;;;;;4988215;28;20413;-56
2021/10/18 03:31:16;;;;;;;1.58;1.30;;;21.30;55.70;;;;;;4985848;28;20043;-48
2021/10/18 03:33:42;;;;;;;2.15;1.50;;;21.30;55.70;;;;;;4986828;28;20031;-49
2021/10/18 03:36:09;;;;;;;2.13;1.33;;;21.30;55.70;;;;;;4988006;28;20037;-55
2021/10/18 03:38:35;;;;;;;2.63;1.58;;;21.30;55.70;;;;;;4991813;28;20049;-54
2021/10/18 03:41:01;;;;;;;2.33;1.50;;;21.20;55.70;;;;;;4981716;28;20128;-57
2021/10/18 03:43:26;;;;;;;2.90;1.60;;;21.20;55.70;;;;;;4991046;28;20027;-60
2021/10/18 03:45:52;;;;;;;2.00;1.35;;;21.20;55.70;;;;;;4984692;28;20064;-51
2021/10/18 03:48:18;;;;;;;2.70;1.58;;;21.20;55.70;;;;;;4986957;28;20379;-49
2021/10/18 03:50:44;;;;;;;2.83;1.52;;;21.20;55.70;;;;;;4985518;28;20037;-56
2021/10/18 03:53:09;;;;;;;1.70;1.30;;;21.20;55.70;;;;;;4979189;28;20045;-59
2021/10/18 03:55:35;;;;;;;2.03;1.50;;;21.20;55.70;;;;;;4985046;28;20071;-57
2021/10/18 03:58:01;;;;;;;2.00;1.30;;;21.20;55.70;;;;;;4982446;28;20165;-56
2021/10/18 04:00:27;;;;;;;2.28;1.35;;;21.20;55.70;;;;;;4990960;28;20038;-60
2021/10/18 04:02:52;;;;;;;1.90;1.40;;;21.20;55.70;;;;;;4981817;28;20719;-55
2021/10/18 04:05:18;;;;;;;1.98;1.40;;;21.20;55.70;;;;;;4981196;28;20030;-56
2021/10/18 04:07:48;;;;;;;1.90;1.30;;;21.20;55.70;;;;;;4982663;28;20186;-59
2021/10/18 04:10:14;;;;;;;1.90;1.30;;;21.20;55.70;;;;;;4989049;28;20035;-52
2021/10/18 04:12:40;;;;;;;2.13;1.40;;;21.20;55.70;;;;;;4995753;28;20030;-56
2021/10/18 04:15:06;;;;;;;2.22;1.48;;;21.20;55.70;;;;;;4991949;28;20041;-57
2021/10/18 04:17:32;;;;;;;1.90;1.50;;;21.20;55.70;;;;;;4988628;28;20033;-60
2021/10/18 04:19:57;;;;;;;2.10;1.30;;;21.20;55.70;;;;;;4978652;28;20041;-58
2021/10/18 04:22:23;;;;;;;3.22;1.40;;;21.20;55.70;;;;;;4977963;28;20129;-58
2021/10/18 04:24:50;;;;;;;2.15;1.40;;;21.20;55.70;;;;;;4990482;28;20050;-60
2021/10/18 04:27:16;;;;;;;1.98;1.20;;;21.20;55.70;;;;;;4988989;28;20031;-61
2021/10/18 04:29:41;;;;;;;1.80;1.40;;;21.20;55.70;;;;;;4992578;28;20036;-59
2021/10/18 04:32:07;;;;;;;2.03;1.40;;;21.20;55.70;;;;;;4986232;28;20049;-53
2021/10/18 04:34:33;;;;;;;1.88;1.25;;;21.20;55.70;;;;;;4992100;28;20081;-59
2021/10/18 04:36:59;;;;;;;1.80;1.35;;;21.20;55.70;;;;;;4984772;28;20034;-60
2021/10/18 04:39:25;;;;;;;2.13;1.52;;;21.20;55.70;;;;;;4989244;28;20141;-52
2021/10/18 04:41:50;;;;;;;2.25;1.52;;;21.20;55.70;;;;;;4989788;28;20042;-56
2021/10/18 04:44:16;;;;;;;1.65;1.25;;;21.20;55.70;;;;;;4992777;28;20129;-59
2021/10/18 04:46:41;;;;;;;1.88;1.23;;;21.20;55.70;;;;;;4986990;28;20025;-58
2021/10/18 04:49:07;;;;;;;2.00;1.50;;;21.20;55.70;;;;;;4991689;28;20030;-58
2021/10/18 04:51:33;;;;;;;1.90;1.33;;;21.20;55.70;;;;;;4996143;28;20442;-60
2021/10/18 04:53:58;;;;;;;2.08;1.35;;;21.10;55.70;;;;;;4985174;28;20525;-54
2021/10/18 04:56:24;;;;;;;1.88;1.50;;;21.20;55.70;;;;;;4989855;28;20034;-49
2021/10/18 04:58:50;;;;;;;1.65;1.30;;;21.20;55.80;;;;;;4998905;28;20038;-60
2021/10/18 05:01:15;;;;;;;2.08;1.27;;;21.20;55.80;;;;;;4986118;28;20462;-54
2021/10/18 05:03:41;;;;;;;1.90;1.33;;;21.20;55.80;;;;;;4990447;28;20057;-57
2021/10/18 05:06:06;;;;;;;1.75;1.20;;;21.20;55.80;;;;;;4985626;28;20106;-48
2021/10/18 05:08:32;;;;;;;2.45;1.40;;;21.20;55.80;;;;;;4986102;28;20027;-51
2021/10/18 05:10:58;;;;;;;1.75;1.20;;;21.20;55.80;;;;;;4982001;28;20026;-61
2021/10/18 05:13:24;;;;;;;1.95;1.33;;;21.10;55.80;;;;;;4981556;28;20125;-55
2021/10/18 05:15:52;;;;;;;1.33;1.10;;;21.20;55.80;;;;;;4993370;28;20065;-60
2021/10/18 05:18:18;;;;;;;1.85;1.20;;;21.10;55.80;;;;;;4981485;28;20034;-55
2021/10/18 05:20:46;;;;;;;1.90;1.40;;;21.10;55.80;;;;;;4987517;28;20044;-50
2021/10/18 05:23:11;;;;;;;1.95;1.25;;;21.10;55.80;;;;;;4986113;28;20108;-51
2021/10/18 05:25:37;;;;;;;2.28;1.50;;;21.10;55.80;;;;;;4990201;28;20109;-56
2021/10/18 05:28:03;;;;;;;2.08;1.30;;;21.10;55.80;;;;;;4994129;28;20038;-52
2021/10/18 05:30:29;;;;;;;2.92;1.42;;;21.20;56.00;;;;;;4995100;28;20041;-58
2021/10/18 05:32:56;;;;;;;1.95;1.10;;;21.20;55.90;;;;;;4996474;28;20025;-60
2021/10/18 05:35:22;;;;;;;2.28;1.17;;;21.20;56.00;;;;;;5000234;28;20088;-56
2021/10/18 05:37:49;;;;;;;1.88;1.30;;;21.20;56.00;;;;;;4994671;28;20030;-60
2021/10/18 05:40:16;;;;;;;5.00;1.38;;;21.20;55.90;;;;;;4990034;28;20102;-60
2021/10/18 05:42:42;;;;;;;2.00;1.40;;;21.30;56.00;;;;;;4992552;28;20031;-55
2021/10/18 05:45:08;;;;;;;1.95;1.40;;;21.30;55.90;;;;;;4996365;28;20036;-55
2021/10/18 05:47:34;;;;;;;2.05;1.40;;;21.30;55.90;;;;;;4992077;28;20038;-56
2021/10/18 05:50:00;;;;;;;1.58;1.10;;;21.40;55.90;;;;;;4984069;28;20589;-58
2021/10/18 05:52:29;;;;;;;3.05;1.30;;;21.40;55.80;;;;;;4998081;28;20035;-52
2021/10/18 05:54:55;;;;;;;3.22;1.33;;;21.40;55.80;;;;;;4988460;28;20173;-57
2021/10/18 05:57:21;;;;;;;1.77;1.20;;;21.40;55.70;;;;;;4991598;28;20062;-57
2021/10/18 05:59:46;;;;;;;2.20;1.38;;;21.50;55.70;;;;;;4987295;28;20082;-56
2021/10/18 06:02:12;;;;;;;2.65;1.33;;;21.50;56.10;;;;;;4979637;28;20113;-59
2021/10/18 06:04:42;;;;;;;2.08;1.33;;;21.50;56.50;;;;;;4981577;28;20045;-57
2021/10/18 06:07:08;;;;;;;2.38;1.30;;;21.60;56.50;;;;;;4976951;28;20450;-56
2021/10/18 06:09:34;;;;;;;1.42;1.10;;;21.60;56.90;;;;;;4987364;28;20030;-58
2021/10/18 06:12:00;;;;;;;1.60;1.20;;;21.60;56.60;;;;;;4987175;28;20034;-54
2021/10/18 06:14:25;;;;;;;1.50;1.20;;;21.70;56.70;;;;;;4997900;28;20104;-52
2021/10/18 06:16:51;;;;;;;2.00;1.35;;;21.70;56.90;;;;;;4993531;28;20038;-48
2021/10/18 06:19:16;;;;;;;3.40;1.40;;;21.70;57.10;;;;;;4984758;28;20042;-55
2021/10/18 06:21:42;;;;;;;2.13;1.25;;;21.70;57.30;;;;;;4982728;28;20069;-52
2021/10/18 06:24:08;;;;;;;1.70;1.20;;;21.80;57.00;;;;;;4986307;28;20329;-60
2021/10/18 06:26:35;;;;;;;1.95;1.27;;;21.80;57.30;;;;;;4989224;28;20030;-55
2021/10/18 06:29:01;;;;;;;1.70;1.20;;;21.90;57.20;;;;;;4983707;28;20036;-60
2021/10/18 06:31:26;;;;;;;1.90;1.02;;;21.90;57.60;;;;;;4987554;28;20121;-57
2021/10/18 06:33:52;;;;;;;2.00;1.10;;;21.90;57.60;;;;;;4985496;28;20053;-61
2021/10/18 06:36:17;;;;;;;2.10;1.10;;;22.00;57.20;;;;;;4980604;28;20078;-61
2021/10/18 06:38:43;;;;;;;1.50;1.08;;;22.00;57.70;;;;;;4979581;28;20038;-56
2021/10/18 06:41:08;;;;;;;2.03;1.10;;;22.00;58.10;;;;;;4983428;28;20042;-57
2021/10/18 06:43:34;;;;;;;1.70;1.10;;;22.10;58.40;;;;;;4986914;28;20044;-60
2021/10/18 06:46:00;;;;;;;1.95;1.15;;;22.10;58.30;;;;;;4985525;28;20528;-51
2021/10/18 06:48:25;;;;;;;1.83;1.20;;;22.20;57.80;;;;;;4978860;28;20107;-55
2021/10/18 06:50:51;;;;;;;2.13;1.08;;;22.20;58.30;;;;;;4989341;28;20125;-58
2021/10/18 06:53:19;;;;;;;1.58;1.08;;;22.20;57.80;;;;;;4982244;28;20027;-60
2021/10/18 06:55:45;;;;;;;2.05;1.20;;;22.20;57.50;;;;;;4979638;28;20467;-55
2021/10/18 06:58:11;;;;;;;2.90;1.00;;;22.30;57.50;;;;;;4985353;28;20035;-53
2021/10/18 07:00:37;;;;;;;1.38;1.00;;;22.30;57.50;;;;;;4992815;28;20053;-55
2021/10/18 07:03:04;;;;;;;1.50;1.00;;;22.30;57.50;;;;;;4994427;28;20026;-60
2021/10/18 07:05:30;;;;;;;1.77;1.23;;;22.30;57.80;;;;;;4980696;28;20029;-57
2021/10/18 07:07:56;;;;;;;1.90;1.33;;;22.40;56.60;;;;;;4981054;28;20034;-58
2021/10/18 07:10:21;;;;;;;2.15;1.40;;;22.40;56.00;;;;;;4988811;28;20049;-60
2021/10/18 07:12:47;;;;;;;2.40;1.40;;;22.40;55.50;;;;;;4987888;28;20147;-53
2021/10/18 07:15:13;;;;;;;1.88;1.30;;;22.40;55.30;;;;;;4980801;28;20166;-61
2021/10/18 07:17:38;;;;;;;1.92;1.33;;;22.40;55.10;;;;;;4980753;28;20031;-53
2021/10/18 07:20:05;;;;;;;1.55;1.20;;;22.40;54.90;;;;;;4979356;28;20157;-58
2021/10/18 07:22:41;;;;;;;1.60;1.20;;;22.40;54.80;;;;;;4976497;28;20101;-55
2021/10/18 07:25:07;;;;;;;1.55;1.20;;;22.40;54.80;;;;;;4982312;28;20034;-58
2021/10/18 07:27:33;;;;;;;2.20;1.20;;;22.40;54.80;;;;;;4984785;28;20045;-55
2021/10/18 07:29:58;;;;;;;1.58;1.10;;;22.40;54.80;;;;;;4984534;28;20339;-57
2021/10/18 07:32:24;;;;;;;1.75;1.20;;;22.40;54.80;;;;;;4987606;28;20340;-56
2021/10/18 07:34:50;;;;;;;2.00;1.13;;;22.40;54.80;;;;;;4987241;28;20034;-60
2021/10/18 07:37:18;;;;;;;2.50;1.20;;;22.40;54.80;;;;;;4986552;28;20029;-55
2021/10/18 07:39:44;;;;;;;1.50;1.00;;;22.40;54.90;;;;;;4982866;28;20137;-54
2021/10/18 07:42:14;;;;;;;1.60;1.20;;;22.40;54.80;;;;;;4978395;28;20111;-59
2021/10/18 07:44:40;;;;;;;1.35;1.13;;;22.40;54.80;;;;;;4987893;28;20026;-57
2021/10/18 07:47:06;;;;;;;1.50;1.02;;;22.40;54.80;;;;;;4988533;28;21090;-55
2021/10/18 07:49:36;;;;;;;3.50;1.48;;;22.50;55.00;;;;;;4989079;28;20116;-56
2021/10/18 07:52:03;;;;;;;2.00;1.20;;;22.50;54.90;;;;;;4983752;28;20061;-55
2021/10/18 07:54:30;;;;;;;1.88;1.30;;;22.50;54.80;;;;;;4989054;28;20524;-59
2021/10/18 07:56:56;;;;;;;1.75;1.30;;;22.50;54.90;;;;;;4999285;28;20022;-61
2021/10/18 07:59:22;;;;;;;1.75;1.10;;;22.50;54.70;;;;;;4990962;28;20480;-57
2021/10/18 08:01:47;;;;;;;1.70;1.20;;;22.60;54.70;;;;;;4988225;28;20120;-61
2021/10/18 08:04:13;;;;;;;2.78;1.27;;;22.60;54.60;;;;;;4988762;28;20037;-55
2021/10/18 08:06:39;;;;;;;2.05;1.40;;;22.60;54.60;;;;;;4989847;28;20042;-56
2021/10/18 08:09:08;;;;;;;2.78;1.63;;;22.60;54.50;;;;;;4989277;28;20213;-57
2021/10/18 08:11:33;;;;;;;2.05;1.30;;;22.60;54.50;;;;;;4984730;28;20496;-57
2021/10/18 08:13:59;;;;;;;1.88;1.20;;;22.60;54.50;;;;;;4995563;28;20145;-55
2021/10/18 08:16:25;;;;;;;2.10;1.30;;;22.60;54.40;;;;;;4989269;28;20030;-57
2021/10/18 08:18:52;;;;;;;1.83;1.30;;;22.60;54.50;;;;;;4985479;28;20634;-58
2021/10/18 08:21:18;;;;;;;2.10;1.30;;;22.60;54.40;;;;;;4987729;28;20026;-56
2021/10/18 08:23:43;;;;;;;1.95;1.30;;;22.60;54.40;;;;;;4983165;28;20038;-57
2021/10/18 08:26:09;;;;;;;2.25;1.20;;;22.60;54.30;;;;;;4990053;28;20713;-60
2021/10/18 08:28:34;;;;;;;2.45;1.30;;;22.60;54.30;;;;;;4988529;28;20026;-54
2021/10/18 08:31:00;;;;;;;1.70;1.48;;;22.60;54.20;;;;;;4986969;28;20034;-53
2021/10/18 08:33:31;;;;;;;1.60;1.20;;;22.60;54.20;;;;;;4991725;28;20034;-54
2021/10/18 08:35:57;;;;;;;1.52;1.27;;;22.60;54.10;;;;;;4988724;28;20030;-58
2021/10/18 08:41:14;;;;;;;2.42;1.40;;;22.70;54.10;;;;;;4994288;28;20060;-56
2021/10/18 08:46:07;;;;;;;1.98;1.33;;;22.70;54.00;;;;;;5008276;28;20108;-55
2021/10/18 08:48:33;;;;;;;1.40;1.05;;;22.70;54.00;;;;;;4998072;28;20022;-57
2021/10/18 08:50:59;;;;;;;1.52;1.15;;;22.70;54.00;;;;;;5003300;28;20033;-53
2021/10/18 08:53:25;;;;;;;2.55;1.20;;;22.70;53.90;;;;;;5000842;28;20108;-58
2021/10/18 08:55:51;;;;;;;1.88;1.17;;;22.70;54.00;;;;;;5003895;28;20126;-51
2021/10/18 08:58:17;;;;;;;2.20;1.30;;;22.80;54.00;;;;;;4993222;28;20037;-56
2021/10/18 09:00:51;;;;;;;1.75;1.15;;;22.80;54.00;;;;;;4997332;28;20037;-61
2021/10/18 09:03:31;;;;;;;2.63;1.23;;;22.80;54.00;;;;;;4986583;28;20028;-55
2021/10/18 09:06:16;;;;;;;1.63;1.27;;;22.80;53.90;;;;;;4979455;28;20030;-59
2021/10/18 09:08:49;;;;;;;2.53;1.30;;;22.80;53.90;;;;;;4989621;28;20049;-56
2021/10/18 09:11:21;;;;;;;2.47;1.20;;;22.80;53.90;;;;;;4990828;28;20030;-56
2021/10/18 09:13:53;;;;;;;1.80;1.20;;;22.80;53.90;;;;;;4981311;28;20034;-61
2021/10/18 09:16:24;;;;;;;1.67;1.23;;;22.80;53.90;;;;;;4993552;28;20080;-54
2021/10/18 09:19:09;;;;;;;1.60;1.20;;;22.80;53.80;;;;;;4995550;28;20542;-54
2021/10/18 09:21:39;;;;;;;1.73;1.30;;;22.80;53.80;;;;;;4997816;28;20109;-59
2021/10/18 09:24:05;;;;;;;;;;;22.80;53.70;;;;;;5005041;28;20384;-60
2021/10/18 09:26:32;;;;;;;1.92;1.38;;;22.80;53.80;;;;;;4989383;28;19918;-57
2021/10/18 09:29:08;;;;;;;1.65;1.08;;;22.80;54.30;;;;;;4995110;28;20028;-55
2021/10/18 09:31:34;;;;;;;1.50;1.10;;;22.80;53.70;;;;;;5000185;28;21418;-56
2021/10/18 09:34:11;;;;;;;1.63;1.23;;;22.80;54.20;;;;;;4991903;28;20046;-54
2021/10/18 09:36:36;;;;;;;3.03;1.20;;;22.80;53.70;;;;;;4990848;28;20039;-58
2021/10/18 09:39:21;;;;;;;2.15;1.25;;;22.80;53.80;;;;;;4987996;28;20022;-61
2021/10/18 09:41:57;;;;;;;2.15;1.40;;;22.80;53.70;;;;;;4982169;28;20117;-57
2021/10/18 09:44:49;;;;;;;2.22;1.40;;;22.80;53.70;;;;;;4992873;28;20021;-60
2021/10/18 10:53:21;;;;;;;2.38;1.38;;;22.90;53.60;;;;;;4981861;28;20396;-58
2021/10/18 10:55:48;;;;;;;2.88;1.42;;;22.90;53.60;;;;;;4984391;28;20697;-60
2021/10/18 10:58:49;;;;;;;2.20;1.20;;;22.90;53.60;;;;;;4986563;28;20473;-61
2021/10/18 11:01:39;;;;;;;3.08;1.67;;;22.90;53.60;;;;;;4979495;28;20038;-51
2021/10/18 11:04:30;;;;;;;2.60;1.65;;;22.90;53.60;;;;;;4980066;28;20324;-60
2021/10/18 11:07:03;;;;;;;3.45;1.48;;;22.90;53.60;;;;;;4978181;28;20029;-56
2021/10/18 11:09:52;;;;;;;2.60;1.40;;;22.90;53.60;;;;;;4982560;28;20133;-58
2021/10/18 11:12:31;;;;;;;3.38;1.48;;;22.90;53.60;;;;;;4979795;28;20165;-58
2021/10/18 11:15:05;;;;;;;2.33;1.42;;;22.90;53.60;;;;;;4979023;28;20407;-61
2021/10/18 11:17:34;;;;;;;2.28;1.45;;;22.90;53.60;;;;;;4980535;28;20030;-59
2021/10/18 11:20:02;;;;;;;3.80;1.40;;;23.00;53.70;;;;;;4985589;28;20034;-56
2021/10/18 11:22:37;;;;;;;2.78;1.48;;;23.00;53.60;;;;;;4983736;28;20100;-61
2021/10/18 11:25:12;;;;;;;2.72;1.50;;;23.00;53.60;;;;;;4990243;28;20038;-54
2021/10/18 11:27:39;;;;;;;2.28;1.30;;;23.00;53.70;;;;;;4986920;28;20046;-59
2021/10/18 11:30:09;;;;;;;2.45;1.40;;;23.00;53.60;;;;;;4989140;28;21764;-57
2021/10/18 11:32:35;;;;;;;2.33;1.30;;;23.00;53.60;;;;;;4985664;28;20390;-56
2021/10/18 11:35:05;;;;;;;1.92;1.30;;;23.00;53.60;;;;;;4980513;28;20054;-56
2021/10/18 11:37:58;;;;;;;2.83;1.50;;;23.00;53.50;;;;;;4983083;28;20033;-56
2021/10/18 11:40:33;;;;;;;2.53;1.40;;;23.00;53.50;;;;;;4985607;28;20026;-56
2021/10/18 11:43:03;;;;;;;2.20;1.40;;;23.00;53.50;;;;;;4978908;28;20105;-56
2021/10/18 11:45:33;;;;;;;2.40;1.30;;;23.00;53.50;;;;;;4982818;28;20174;-53
2021/10/18 11:48:06;;;;;;;2.28;1.45;;;23.00;53.50;;;;;;4983948;28;20582;-53
2021/10/18 11:50:36;;;;;;;1.38;1.10;;;23.00;53.60;;;;;;4976610;28;20038;-56
2021/10/18 11:53:16;;;;;;;2.28;1.38;;;23.00;53.70;;;;;;4979890;28;20030;-54
2021/10/18 11:55:48;;;;;;;2.22;1.40;;;23.10;53.70;;;;;;4991616;28;20030;-58
2021/10/18 11:58:26;;;;;;;2.63;1.33;;;23.10;53.60;;;;;;4982330;28;20458;-55
2021/10/18 12:00:57;;;;;;;2.22;1.27;;;23.10;53.60;;;;;;4989321;28;20064;-58
2021/10/18 12:03:22;;;;;;;1.73;1.00;;;23.10;53.70;;;;;;4983227;28;20117;-59
2021/10/18 12:05:53;;;;;;;1.95;1.00;;;23.00;54.20;;;;;;4982568;28;20133;-61
2021/10/18 12:08:22;;;;;;;2.60;1.40;;;23.00;53.80;;;;;;4986434;28;20088;-59
2021/10/18 12:10:49;;;;;;;2.50;1.10;;;23.00;53.80;;;;;;4986516;28;20069;-53
2021/10/18 12:13:15;;;;;;;2.53;1.40;;;23.10;53.90;;;;;;4988956;28;20069;-54
2021/10/18 12:15:47;;;;;;;2.08;1.20;;;23.10;53.80;;;;;;4985796;28;20042;-55
2021/10/18 12:18:15;;;;;;;2.40;1.40;;;23.10;53.70;;;;;;4987506;28;20462;-52
2021/10/18 12:20:42;;;;;;;3.42;1.40;;;23.10;53.70;;;;;;4986563;28;20534;-61
2021/10/18 12:23:16;;;;;;;2.15;1.27;;;23.10;53.80;;;;;;4984698;28;20125;-51
2021/10/18 12:26:01;;;;;;;2.00;1.25;;;23.10;53.90;;;;;;4984231;28;20141;-51
2021/10/18 12:28:39;;;;;;;3.53;1.40;;;23.10;53.80;;;;;;4983426;28;20050;-58
2021/10/18 12:31:06;;;;;;;2.45;1.40;;;23.20;53.80;;;;;;4988391;28;20034;-53
2021/10/18 12:33:39;;;;;;;2.75;1.40;;;23.10;53.70;;;;;;4993232;28;20137;-55
2021/10/18 12:36:05;;;;;;;2.13;1.23;;;23.10;53.60;;;;;;4995010;28;20038;-61
2021/10/18 12:38:32;;;;;;;2.65;1.30;;;23.20;53.60;;;;;;4990616;28;20054;-58
2021/10/18 12:41:15;;;;;;;1.80;1.30;;;23.20;53.60;;;;;;4988408;28;20372;-52
2021/10/18 12:43:41;;;;;;;2.35;1.40;;;23.20;53.60;;;;;;4984854;28;20037;-60
2021/10/18 12:46:26;;;;;;;2.45;1.40;;;23.20;53.60;;;;;;4988219;28;20049;-53
2021/10/18 12:48:56;;;;;;;2.58;1.60;;;23.20;53.60;;;;;;4989091;28;20034;-56
2021/10/18 12:51:36;;;;;;;3.00;1.40;;;23.20;53.60;;;;;;5014172;28;20125;-61
2021/10/18 12:54:27;;;;;;;1.92;1.20;;;23.20;53.60;;;;;;4989825;28;20099;-60
2021/10/18 12:57:02;;;;;;;2.13;1.40;;;23.20;53.60;;;;;;4986554;28;20060;-59
2021/10/18 12:59:29;;;;;;;2.22;1.30;;;23.20;53.70;;;;;;4982691;28;20031;-51
2021/10/18 13:02:14;;;;;;;3.75;1.27;;;23.20;53.70;;;;;;4985831;28;20040;-58
2021/10/18 13:04:40;;;;;;;2.47;1.40;;;23.20;53.60;;;;;;4989938;28;20037;-59
2021/10/18 13:07:06;;;;;;;2.03;1.30;;;23.20;53.60;;;;;;4987819;28;20026;-60
2021/10/18 13:09:31;;;;;;;2.15;1.30;;;23.20;53.60;;;;;;4986029;28;20118;-56
2021/10/18 13:11:57;;;;;;;2.15;1.25;;;23.20;54.00;;;;;;4989221;28;20028;-52
2021/10/18 13:14:22;;;;;;;2.88;1.60;;;23.20;53.50;;;;;;4993786;28;20037;-51
2021/10/18 13:16:48;;;;;;;2.05;1.30;;;23.20;53.50;;;;;;4987820;28;20062;-57
2021/10/18 13:19:14;;;;;;;2.03;1.30;;;23.20;53.50;;;;;;4988534;28;20549;-60
2021/10/18 13:21:39;;;;;;;2.28;1.48;;;23.20;53.50;;;;;;4986549;28;20359;-60
2021/10/18 13:24:05;;;;;;;3.47;1.30;;;23.20;53.50;;;;;;4988856;28;20030;-58
2021/10/18 13:26:31;;;;;;;1.80;1.20;;;23.30;53.50;;;;;;4989705;28;20036;-53
2021/10/18 13:28:56;;;;;;;3.13;1.23;;;23.30;53.50;;;;;;4988893;28;20752;-58
2021/10/18 13:31:22;;;;;;;3.30;1.10;;;23.30;53.50;;;;;;4984097;28;20038;-59
2021/10/18 13:33:47;;;;;;;3.20;1.20;;;23.30;53.50;;;;;;4996405;28;20052;-60
2021/10/18 13:36:13;;;;;;;2.70;1.38;;;23.30;53.50;;;;;;4982528;28;20038;-60
2021/10/18 13:38:38;;;;;;;2.10;1.20;;;23.30;53.50;;;;;;4992447;28;20045;-58
2021/10/18 13:41:04;;;;;;;2.95;1.30;;;23.30;53.50;;;;;;4989098;28;20026;-54
2021/10/18 13:43:30;;;;;;;1.88;1.30;;;23.30;53.50;;;;;;4996180;28;20026;-51
2021/10/18 13:45:57;;;;;;;2.72;1.90;;;23.30;53.50;;;;;;5001575;28;20030;-54
2021/10/18 13:48:24;;;;;;;2.30;1.50;;;23.30;53.50;;;;;;4990672;28;20460;-54
2021/10/18 13:50:50;;;;;;;1.90;1.20;;;23.30;53.50;;;;;;4978996;28;20042;-57
2021/10/18 13:53:16;;;;;;;2.00;1.27;;;23.30;53.50;;;;;;4983350;28;20030;-52
2021/10/18 13:55:42;;;;;;;3.13;1.48;;;23.40;53.60;;;;;;4978635;28;20061;-54
2021/10/18 13:58:10;;;;;;;2.83;1.30;;;23.30;53.50;;;;;;4981679;28;20112;-56
2021/10/18 14:00:37;;;;;;;1.77;1.05;;;23.30;53.60;;;;;;4983633;28;20034;-50
2021/10/18 14:03:03;;;;;;;1.70;1.15;;;23.30;53.60;;;;;;4985488;28;20022;-54